Main page
METAR-TAF:

METAR-TAF

Airports :

Bolzano, Italy

latitude: 46-28N, longitude: 011-20E, elevation: 262 m

Current weather observation

The report was made 3 hours and 5 minutes ago, at 20:50 UTC
Wind 1 kt from variable directions
Temperature 7°C
Humidity 76%
Pressure 1018 hPa
Visibility 10 km or more
Overcast at a height of 8000 ft

METAR: LIPB 302050Z VRB01KT 9999 OVC080 07/03 Q1018 RMK MON INVIS

Time: 01:55 (23:55 UTC)

Forecast

The report was made 6 hours and 55 minutes ago, at 17:00 UTC
Forecast valid from 30 at 18 UTC to 31 at 18 UTC
Wind 8 kt from the North
Visibility: 8000 m
Broken clouds at a height of 6000 ft
Temporary
from 30 at 18 UTC to 30 at 22 UTC
rain
Temporary
from 30 at 22 UTC to 31 at 06 UTC
rain, snow

TAF: LIPB 301700Z 3018/3118 35008KT 8000 BKN060 TEMPO 3018/3022 RA TEMPO 3022/3106 RASN

Weather observations and forecasts of more than 4000 airports (METAR and TAF reports).

The available stations are represented by yellow and red dots on the map.

Hover mouse over dot to see the name of the station.

Then click to see weather observations and forecasts.

To change the map : click on the green buttons with a black cross to zoom in, on the green button with a dash to zoom out, or on the green arrows for adjacent maps.


METAR-TAF: